Time;durP1;ratioP1;P1;durP2;ratioP2;P2;SDS_P1;SDS_P2;PMS_P1;PMS_P2;Temp;Humidity;BMP_temperature;BMP_pressure;BME280_temperature;BME280_humidity;BME280_pressure;Samples;Min_cycle;Max_cycle;Signal;HPM_P1;HPM_P2
2021/08/29 00:02:24;;;;;;;7.23;3.63;;;;;;;;;;5011901;28;20578;-74
2021/08/29 00:04:50;;;;;;;3.50;2.80;;;;;;;;;;5013825;28;20408;-75
2021/08/29 00:07:16;;;;;;;5.17;3.30;;;;;;;;;;5007601;28;20976;-74
2021/08/29 00:09:42;;;;;;;4.70;3.30;;;;;;;;;;4993831;28;20432;-75
2021/08/29 00:12:08;;;;;;;4.60;3.63;;;;;;;;;;5003686;28;20436;-74
2021/08/29 00:14:34;;;;;;;2.93;2.60;;;;;;;;;;5012911;28;20415;-74
2021/08/29 00:17:00;;;;;;;3.83;2.90;;;;;;;;;;5009964;28;20448;-74
2021/08/29 00:19:26;;;;;;;4.07;3.30;;;;;;;;;;4993923;28;20451;-75
2021/08/29 00:21:52;;;;;;;4.23;3.63;;;;;;;;;;4994389;28;20413;-74
2021/08/29 00:24:18;;;;;;;5.27;3.50;;;;;;;;;;5012210;28;20474;-74
2021/08/29 00:26:44;;;;;;;3.37;2.60;;;;;;;;;;4994501;28;20481;-75
2021/08/29 00:29:10;;;;;;;3.63;2.97;;;;;;;;;;5033295;28;20407;-75
2021/08/29 00:31:36;;;;;;;3.93;2.80;;;;;;;;;;5031131;28;20431;-75
2021/08/29 00:34:03;;;;;;;3.30;2.37;;;;;;;;;;5031334;28;20427;-75
2021/08/29 00:36:29;;;;;;;4.50;3.40;;;;;;;;;;5033057;28;20422;-75
2021/08/29 00:38:55;;;;;;;5.10;2.90;;;;;;;;;;5030987;28;20435;-75
2021/08/29 00:41:21;;;;;;;6.80;2.53;;;;;;;;;;5032921;28;20410;-75
2021/08/29 00:43:47;;;;;;;2.83;2.10;;;;;;;;;;5030581;28;20454;-75
2021/08/29 00:46:13;;;;;;;3.90;2.57;;;;;;;;;;5032759;28;20526;-75
2021/08/29 00:48:43;;;;;;;4.37;2.47;;;;;;;;;;5016581;28;20995;-74
2021/08/29 00:51:09;;;;;;;5.70;2.93;;;;;;;;;;5013458;28;20435;-76
2021/08/29 00:53:35;;;;;;;3.67;2.77;;;;;;;;;;4998404;28;20432;-75
2021/08/29 00:56:01;;;;;;;4.70;3.07;;;;;;;;;;4993712;28;20491;-75
2021/08/29 00:58:28;;;;;;;3.60;2.83;;;;;;;;;;5005576;28;20917;-75
2021/08/29 01:00:56;;;;;;;4.23;3.00;;;;;;;;;;5013212;28;20412;-75
2021/08/29 01:03:25;;;;;;;3.47;2.83;;;;;;;;;;5000853;28;20555;-75
2021/08/29 01:05:59;;;;;;;3.10;2.80;;;;;;;;;;4993242;28;20460;-75
2021/08/29 01:08:29;;;;;;;3.90;2.70;;;;;;;;;;5004546;28;20443;-75
2021/08/29 01:10:57;;;;;;;5.00;2.63;;;;;;;;;;5012965;28;20963;-75
2021/08/29 01:13:27;;;;;;;3.50;2.60;;;;;;;;;;5001305;28;20492;-74
2021/08/29 01:15:54;;;;;;;2.83;2.13;;;;;;;;;;4994367;28;20436;-75
2021/08/29 01:18:20;;;;;;;3.10;2.40;;;;;;;;;;5006795;28;20902;-74
2021/08/29 01:20:46;;;;;;;3.73;2.93;;;;;;;;;;5012832;28;20446;-75
2021/08/29 01:23:13;;;;;;;2.80;2.60;;;;;;;;;;5016245;28;20493;-75
2021/08/29 01:25:45;;;;;;;3.33;3.03;;;;;;;;;;5035390;28;20895;-75
2021/08/29 01:28:11;;;;;;;2.63;2.30;;;;;;;;;;5026219;28;20428;-74
2021/08/29 01:30:37;;;;;;;3.30;2.23;;;;;;;;;;4997094;28;20393;-75
2021/08/29 01:33:03;;;;;;;2.93;2.43;;;;;;;;;;5002027;28;20927;-75
2021/08/29 01:35:29;;;;;;;3.17;2.40;;;;;;;;;;5036108;28;20407;-75
2021/08/29 01:37:56;;;;;;;2.87;2.57;;;;;;;;;;5031144;28;20441;-75
2021/08/29 01:40:22;;;;;;;3.70;2.60;;;;;;;;;;4996534;28;20401;-75
2021/08/29 01:42:48;;;;;;;2.57;2.13;;;;;;;;;;4996634;28;20462;-75
2021/08/29 01:45:15;;;;;;;2.60;2.00;;;;;;;;;;4996662;28;20393;-75
2021/08/29 01:47:41;;;;;;;2.73;2.17;;;;;;;;;;4997437;28;20453;-75
2021/08/29 01:50:08;;;;;;;3.10;2.17;;;;;;;;;;5035931;28;20801;-75
2021/08/29 01:52:34;;;;;;;2.20;2.00;;;;;;;;;;5037087;28;20399;-75
2021/08/29 01:55:00;;;;;;;2.60;2.07;;;;;;;;;;5035829;28;20431;-75
2021/08/29 01:57:26;;;;;;;2.60;2.10;;;;;;;;;;5040894;28;20414;-76
2021/08/29 01:59:52;;;;;;;4.20;2.07;;;;;;;;;;5009445;28;20518;-75
2021/08/29 02:02:18;;;;;;;2.50;2.10;;;;;;;;;;5008915;28;20435;-75
2021/08/29 02:04:45;;;;;;;2.50;1.77;;;;;;;;;;5036282;28;20719;-75
2021/08/29 02:07:14;;;;;;;2.30;1.93;;;;;;;;;;5040371;28;20896;-75
2021/08/29 02:09:43;;;;;;;4.17;2.07;;;;;;;;;;5038649;28;20816;-75
2021/08/29 02:12:10;;;;;;;3.20;2.40;;;;;;;;;;5035474;28;20918;-76
2021/08/29 02:14:44;;;;;;;3.10;2.40;;;;;;;;;;4998938;28;20486;-76
2021/08/29 02:17:11;;;;;;;2.50;2.07;;;;;;;;;;4995954;28;20428;-76
2021/08/29 02:19:38;;;;;;;2.50;1.90;;;;;;;;;;5023047;28;20782;-76
2021/08/29 02:22:05;;;;;;;2.20;1.67;;;;;;;;;;5021786;28;20439;-75
2021/08/29 02:24:32;;;;;;;2.57;1.77;;;;;;;;;;5007983;28;20427;-75
2021/08/29 02:26:58;;;;;;;2.53;2.33;;;;;;;;;;5015309;28;20503;-76
2021/08/29 02:29:24;;;;;;;10.43;2.40;;;;;;;;;;5014242;28;20419;-75
2021/08/29 02:31:51;;;;;;;3.63;2.40;;;;;;;;;;5015255;28;20442;-75
2021/08/29 02:34:17;;;;;;;4.63;2.70;;;;;;;;;;5012782;28;20451;-75
2021/08/29 02:36:45;;;;;;;3.00;2.37;;;;;;;;;;5014068;28;20416;-76
2021/08/29 02:39:14;;;;;;;3.33;2.27;;;;;;;;;;5023152;28;20415;-76
2021/08/29 02:41:41;;;;;;;2.63;2.33;;;;;;;;;;5034790;28;20412;-76
2021/08/29 02:44:07;;;;;;;3.23;2.20;;;;;;;;;;5016237;28;20519;-76
2021/08/29 02:46:33;;;;;;;3.10;2.10;;;;;;;;;;4998466;28;20972;-76
2021/08/29 02:49:00;;;;;;;3.97;1.83;;;;;;;;;;4994409;28;20434;-76
2021/08/29 02:51:26;;;;;;;2.43;2.23;;;;;;;;;;5034699;28;20888;-76
2021/08/29 02:53:52;;;;;;;3.80;2.60;;;;;;;;;;5014733;28;20510;-76
2021/08/29 02:56:20;;;;;;;2.30;1.83;;;;;;;;;;5007417;28;20447;-76
2021/08/29 02:58:46;;;;;;;2.63;2.00;;;;;;;;;;5001083;28;20429;-76
2021/08/29 03:01:13;;;;;;;5.33;2.50;;;;;;;;;;5034494;28;20410;-76
2021/08/29 03:03:39;;;;;;;3.37;3.07;;;;;;;;;;5032476;28;20450;-76
2021/08/29 03:06:05;;;;;;;3.27;2.77;;;;;;;;;;5034594;28;20434;-75
2021/08/29 03:08:32;;;;;;;3.33;2.80;;;;;;;;;;5032576;28;20792;-75
2021/08/29 03:10:58;;;;;;;4.10;2.90;;;;;;;;;;5013865;28;20422;-75
2021/08/29 03:13:25;;;;;;;2.83;2.50;;;;;;;;;;5014453;28;20487;-75
2021/08/29 03:15:51;;;;;;;3.13;2.23;;;;;;;;;;4997253;28;20511;-75
2021/08/29 03:18:17;;;;;;;3.20;2.33;;;;;;;;;;4994867;28;20396;-75
2021/08/29 03:20:43;;;;;;;3.37;2.70;;;;;;;;;;4996898;28;20452;-75
2021/08/29 03:23:09;;;;;;;3.07;2.10;;;;;;;;;;4996234;28;20981;-75
2021/08/29 03:25:36;;;;;;;2.90;2.60;;;;;;;;;;5023159;28;20418;-75
2021/08/29 03:28:02;;;;;;;3.10;2.33;;;;;;;;;;5022374;28;20435;-75
2021/08/29 03:30:28;;;;;;;4.50;2.77;;;;;;;;;;5009107;28;20423;-75
2021/08/29 03:32:54;;;;;;;2.70;2.40;;;;;;;;;;5014335;28;20896;-75
2021/08/29 03:35:20;;;;;;;2.33;1.87;;;;;;;;;;5012832;28;20496;-75
2021/08/29 03:37:46;;;;;;;2.97;2.50;;;;;;;;;;5014672;28;20419;-75
2021/08/29 03:40:13;;;;;;;3.70;2.80;;;;;;;;;;5029074;28;20937;-76
2021/08/29 03:42:40;;;;;;;4.20;2.77;;;;;;;;;;5033781;28;20446;-76
2021/08/29 03:45:07;;;;;;;3.27;2.50;;;;;;;;;;5013851;28;20439;-76
2021/08/29 03:47:34;;;;;;;4.27;2.57;;;;;;;;;;4994295;28;20460;-75
2021/08/29 03:50:00;;;;;;;3.87;2.80;;;;;;;;;;5001923;28;20492;-75
2021/08/29 03:52:27;;;;;;;3.40;2.50;;;;;;;;;;5013790;28;20419;-76
2021/08/29 03:54:53;;;;;;;4.03;3.63;;;;;;;;;;5008480;28;20429;-76
2021/08/29 03:57:19;;;;;;;3.37;2.57;;;;;;;;;;4994161;28;20909;-75
2021/08/29 03:59:45;;;;;;;3.80;2.23;;;;;;;;;;4993715;28;20483;-75
2021/08/29 04:02:11;;;;;;;4.07;2.60;;;;;;;;;;4994051;28;20463;-75
2021/08/29 04:04:37;;;;;;;4.10;3.13;;;;;;;;;;4993735;28;20431;-75
2021/08/29 04:07:05;;;;;;;3.20;2.63;;;;;;;;;;4976410;28;20953;-75
2021/08/29 04:09:32;;;;;;;4.73;3.73;;;;;;;;;;5004274;28;20435;-75
2021/08/29 04:11:58;;;;;;;4.07;3.40;;;;;;;;;;5024376;28;20423;-75
2021/08/29 04:14:25;;;;;;;4.77;3.23;;;;;;;;;;5011924;28;20458;-75
2021/08/29 04:16:54;;;;;;;3.97;3.40;;;;;;;;;;5013412;28;20423;-75
2021/08/29 04:19:21;;;;;;;5.10;3.80;;;;;;;;;;5012516;28;20490;-75
2021/08/29 04:21:47;;;;;;;5.03;3.37;;;;;;;;;;5013070;28;20768;-75
2021/08/29 04:24:13;;;;;;;5.07;3.40;;;;;;;;;;5013307;28;20598;-75
2021/08/29 04:26:39;;;;;;;6.43;4.23;;;;;;;;;;5012764;28;20456;-75
2021/08/29 04:29:05;;;;;;;5.30;3.83;;;;;;;;;;5013357;28;20442;-75
2021/08/29 04:31:33;;;;;;;5.70;4.20;;;;;;;;;;5012306;28;20431;-75
2021/08/29 04:34:02;;;;;;;4.60;3.50;;;;;;;;;;5013551;28;20491;-75
2021/08/29 04:36:32;;;;;;;5.27;4.17;;;;;;;;;;5011981;28;20459;-76
2021/08/29 04:39:01;;;;;;;4.93;3.77;;;;;;;;;;5013350;28;20408;-75
2021/08/29 04:41:27;;;;;;;3.10;2.37;;;;;;;;;;5010804;28;20440;-75
2021/08/29 04:43:53;;;;;;;4.30;3.40;;;;;;;;;;5013286;28;20444;-75
2021/08/29 04:46:19;;;;;;;5.73;4.17;;;;;;;;;;5012262;28;20603;-75
2021/08/29 04:48:45;;;;;;;4.20;3.43;;;;;;;;;;5013247;28;20503;-75
2021/08/29 04:51:12;;;;;;;5.13;3.50;;;;;;;;;;5011402;28;21043;-75
2021/08/29 04:53:38;;;;;;;5.33;4.23;;;;;;;;;;5013301;28;20404;-75
2021/08/29 04:56:04;;;;;;;4.53;3.83;;;;;;;;;;5001206;28;20510;-75
2021/08/29 04:58:30;;;;;;;6.37;3.87;;;;;;;;;;4993802;28;20454;-75
2021/08/29 05:00:56;;;;;;;5.13;3.90;;;;;;;;;;5016388;28;20435;-75
2021/08/29 05:03:22;;;;;;;4.43;3.73;;;;;;;;;;5037040;28;20861;-75
2021/08/29 05:05:48;;;;;;;8.93;4.00;;;;;;;;;;5017761;28;20431;-75
2021/08/29 05:08:14;;;;;;;8.13;4.70;;;;;;;;;;4997383;28;20902;-75
2021/08/29 05:10:40;;;;;;;6.27;5.13;;;;;;;;;;4997361;28;20440;-75
2021/08/29 05:13:06;;;;;;;5.53;4.83;;;;;;;;;;4995954;28;20495;-76
2021/08/29 05:15:32;;;;;;;4.80;4.07;;;;;;;;;;5009139;28;20422;-75
2021/08/29 05:17:58;;;;;;;5.73;4.80;;;;;;;;;;5036566;28;20430;-75
2021/08/29 05:20:25;;;;;;;5.33;4.23;;;;;;;;;;5005181;28;20423;-75
2021/08/29 05:22:51;;;;;;;4.77;3.53;;;;;;;;;;5015525;28;20466;-75
2021/08/29 05:25:17;;;;;;;7.70;4.90;;;;;;;;;;5014039;28;20431;-76
2021/08/29 05:27:43;;;;;;;4.13;3.20;;;;;;;;;;5015882;28;20480;-76
2021/08/29 05:30:09;;;;;;;7.30;5.40;;;;;;;;;;5013305;28;20424;-74
2021/08/29 05:32:35;;;;;;;7.77;5.00;;;;;;;;;;5017407;28;20430;-77
2021/08/29 05:35:01;;;;;;;7.33;5.53;;;;;;;;;;5016001;28;20404;-75
2021/08/29 05:37:27;;;;;;;7.27;5.30;;;;;;;;;;5040411;22;20448;-66
2021/08/29 05:39:53;;;;;;;8.17;4.73;;;;;;;;;;5012834;28;20497;-72
2021/08/29 05:42:19;;;;;;;5.97;5.00;;;;;;;;;;5014571;28;20408;-69
2021/08/29 05:44:45;;;;;;;7.37;5.03;;;;;;;;;;5007195;28;21019;-68
2021/08/29 05:47:11;;;;;;;7.70;5.00;;;;;;;;;;4999977;28;20443;-69
2021/08/29 05:49:37;;;;;;;7.00;5.27;;;;;;;;;;5015822;28;20813;-68
2021/08/29 05:52:04;;;;;;;11.40;5.20;;;;;;;;;;5013669;28;20438;-66
2021/08/29 05:54:30;;;;;;;7.70;5.10;;;;;;;;;;5013176;28;20519;-67
2021/08/29 05:56:56;;;;;;;6.83;4.83;;;;;;;;;;5003979;28;20428;-66
2021/08/29 05:59:22;;;;;;;8.83;5.53;;;;;;;;;;5015740;28;20847;-65
2021/08/29 06:01:48;;;;;;;7.63;6.57;;;;;;;;;;5014296;28;20489;-65
2021/08/29 06:04:14;;;;;;;8.40;5.90;;;;;;;;;;5015853;28;20451;-66
2021/08/29 06:06:40;;;;;;;9.57;5.40;;;;;;;;;;5014077;28;20435;-66
2021/08/29 06:09:06;;;;;;;9.07;5.60;;;;;;;;;;5015414;28;20435;-68
2021/08/29 06:11:33;;;;;;;9.63;6.20;;;;;;;;;;4997317;28;20427;-66
2021/08/29 06:13:59;;;;;;;7.83;5.90;;;;;;;;;;5015297;28;20458;-70
2021/08/29 06:16:25;;;;;;;8.70;6.17;;;;;;;;;;5014468;28;20982;-69
2021/08/29 06:18:52;;;;;;;6.93;5.40;;;;;;;;;;5015635;28;20427;-66
2021/08/29 06:21:18;;;;;;;9.53;5.47;;;;;;;;;;5013827;28;20466;-67
2021/08/29 06:23:44;;;;;;;8.40;4.80;;;;;;;;;;5017232;28;20454;-70
2021/08/29 06:26:10;;;;;;;8.50;5.33;;;;;;;;;;5015180;28;20931;-68
2021/08/29 06:28:36;;;;;;;8.07;6.03;;;;;;;;;;5015736;28;20526;-67
2021/08/29 06:31:02;;;;;;;9.77;6.10;;;;;;;;;;5015684;28;20983;-71
2021/08/29 06:33:28;;;;;;;8.10;6.23;;;;;;;;;;5015907;28;20428;-69
2021/08/29 06:35:55;;;;;;;7.80;6.10;;;;;;;;;;5013240;28;20513;-71
2021/08/29 06:38:21;;;;;;;8.00;6.47;;;;;;;;;;5014897;28;20465;-70
2021/08/29 06:40:48;;;;;;;7.63;5.90;;;;;;;;;;5014786;28;20800;-69
2021/08/29 06:43:14;;;;;;;8.10;6.10;;;;;;;;;;5012979;28;20459;-68
2021/08/29 06:45:40;;;;;;;8.53;6.30;;;;;;;;;;5000817;28;20499;-69
2021/08/29 06:48:06;;;;;;;11.73;6.90;;;;;;;;;;5013880;28;20448;-68
2021/08/29 06:50:32;;;;;;;8.50;6.70;;;;;;;;;;5014775;28;20972;-69
2021/08/29 06:52:58;;;;;;;11.77;7.83;;;;;;;;;;5016495;28;20928;-64
2021/08/29 06:55:25;;;;;;;7.70;5.83;;;;;;;;;;4985476;28;20471;-64
2021/08/29 06:57:51;;;;;;;9.10;6.40;;;;;;;;;;5012425;28;20499;-64
2021/08/29 07:00:17;;;;;;;8.13;6.67;;;;;;;;;;5012657;28;20836;-64
2021/08/29 07:02:43;;;;;;;9.77;6.90;;;;;;;;;;5013902;28;20456;-64
2021/08/29 07:05:09;;;;;;;8.63;6.47;;;;;;;;;;5011406;28;20435;-67
2021/08/29 07:07:35;;;;;;;9.67;6.70;;;;;;;;;;5007888;28;20427;-65
2021/08/29 07:10:01;;;;;;;8.83;7.40;;;;;;;;;;5014022;28;20443;-66
2021/08/29 07:12:27;;;;;;;8.50;6.50;;;;;;;;;;5013144;28;20527;-65
2021/08/29 07:14:53;;;;;;;12.87;6.93;;;;;;;;;;5014329;28;20407;-65
2021/08/29 07:17:20;;;;;;;9.37;6.60;;;;;;;;;;5013677;28;20431;-66
2021/08/29 07:19:46;;;;;;;6.73;5.43;;;;;;;;;;5011649;28;20816;-68
2021/08/29 07:22:12;;;;;;;7.17;5.60;;;;;;;;;;5008564;28;20428;-68
2021/08/29 07:24:38;;;;;;;7.90;6.47;;;;;;;;;;4988902;28;20877;-67
2021/08/29 07:27:05;;;;;;;7.93;6.23;;;;;;;;;;5002302;28;20431;-68
2021/08/29 07:29:31;;;;;;;8.23;5.33;;;;;;;;;;5003688;28;20448;-66
2021/08/29 07:31:57;;;;;;;9.33;5.90;;;;;;;;;;5001296;28;20420;-65
2021/08/29 07:34:23;;;;;;;7.87;5.50;;;;;;;;;;5013794;28;20434;-67
2021/08/29 07:36:49;;;;;;;7.40;5.57;;;;;;;;;;5009521;28;20436;-66
2021/08/29 07:39:15;;;;;;;6.80;5.77;;;;;;;;;;5014306;28;20470;-67
2021/08/29 07:41:41;;;;;;;6.40;4.83;;;;;;;;;;5014638;28;20783;-66
2021/08/29 07:44:07;;;;;;;4.40;4.00;;;;;;;;;;5011330;28;20481;-67
2021/08/29 07:46:33;;;;;;;5.17;4.40;;;;;;;;;;5008311;28;20528;-65
2021/08/29 07:48:59;;;;;;;5.93;4.37;;;;;;;;;;5013732;28;20420;-65
2021/08/29 07:51:26;;;;;;;6.17;4.70;;;;;;;;;;5014278;28;20832;-65
2021/08/29 07:53:52;;;;;;;6.50;4.57;;;;;;;;;;5011765;28;20439;-65
2021/08/29 07:56:18;;;;;;;4.73;3.77;;;;;;;;;;5011290;28;20982;-66
2021/08/29 07:58:44;;;;;;;3.30;2.90;;;;;;;;;;5011871;28;20455;-66
2021/08/29 08:01:10;;;;;;;6.27;3.47;;;;;;;;;;5013973;28;20404;-66
2021/08/29 08:03:36;;;;;;;3.27;2.57;;;;;;;;;;5012695;28;20466;-66
2021/08/29 08:06:04;;;;;;;4.63;3.07;;;;;;;;;;5014040;28;20766;-66
2021/08/29 08:08:30;;;;;;;3.77;3.00;;;;;;;;;;5011781;28;20455;-66
2021/08/29 08:10:56;;;;;;;3.67;2.97;;;;;;;;;;5013552;28;20430;-65
2021/08/29 08:13:22;;;;;;;3.27;2.67;;;;;;;;;;5012310;28;20447;-66
2021/08/29 08:15:48;;;;;;;3.70;2.83;;;;;;;;;;5011349;28;20497;-64
2021/08/29 08:18:14;;;;;;;3.57;2.83;;;;;;;;;;5012672;28;20506;-63
2021/08/29 08:20:40;;;;;;;3.50;2.73;;;;;;;;;;5011238;28;20431;-64
2021/08/29 08:23:06;;;;;;;4.53;2.77;;;;;;;;;;5008810;28;20463;-65
2021/08/29 08:25:32;;;;;;;5.20;2.97;;;;;;;;;;5012324;28;20439;-64
2021/08/29 08:27:58;;;;;;;4.57;2.73;;;;;;;;;;5004544;28;20937;-64
2021/08/29 08:30:24;;;;;;;3.93;2.70;;;;;;;;;;4994110;28;20400;-65
2021/08/29 08:32:50;;;;;;;3.67;2.90;;;;;;;;;;5000798;28;20467;-65
2021/08/29 08:35:16;;;;;;;4.17;3.23;;;;;;;;;;5016184;28;20416;-64
2021/08/29 08:37:42;;;;;;;5.87;2.90;;;;;;;;;;5016783;28;20928;-65
2021/08/29 08:40:08;;;;;;;4.10;3.40;;;;;;;;;;5017764;28;20462;-64
2021/08/29 08:42:34;;;;;;;3.93;2.80;;;;;;;;;;5015442;28;20423;-65
2021/08/29 08:45:01;;;;;;;3.63;2.87;;;;;;;;;;5015749;28;20821;-65
2021/08/29 08:47:27;;;;;;;4.63;3.53;;;;;;;;;;5016613;28;20482;-65
2021/08/29 08:49:54;;;;;;;4.43;3.23;;;;;;;;;;5017362;28;20403;-64
2021/08/29 08:52:27;;;;;;;4.07;3.00;;;;;;;;;;5014731;28;20436;-65
2021/08/29 08:54:54;;;;;;;4.27;3.30;;;;;;;;;;4997627;28;20432;-66
2021/08/29 08:57:20;;;;;;;5.30;4.07;;;;;;;;;;4998529;28;20403;-66
2021/08/29 08:59:48;;;;;;;4.23;3.50;;;;;;;;;;5017227;28;20515;-64
2021/08/29 09:02:16;;;;;;;5.37;4.00;;;;;;;;;;5015801;28;20400;-66
2021/08/29 09:04:42;;;;;;;3.40;3.00;;;;;;;;;;4997780;28;20452;-64
2021/08/29 09:07:08;;;;;;;4.13;3.30;;;;;;;;;;4997347;28;20405;-66
2021/08/29 09:09:34;;;;;;;4.13;3.60;;;;;;;;;;5016827;28;20430;-65
2021/08/29 09:12:01;;;;;;;4.50;3.37;;;;;;;;;;5016954;28;20491;-64
2021/08/29 09:14:38;;;;;;;4.10;3.37;;;;;;;;;;4995186;28;20941;-65
2021/08/29 09:17:04;;;;;;;4.70;3.60;;;;;;;;;;4997344;28;20455;-65
2021/08/29 09:19:30;;;;;;;4.37;3.47;;;;;;;;;;5015554;28;20546;-65
2021/08/29 09:21:58;;;;;;;4.53;3.83;;;;;;;;;;5008047;28;20523;-64
2021/08/29 09:24:28;;;;;;;5.53;3.20;;;;;;;;;;4997204;28;20468;-63
2021/08/29 09:26:59;;;;;;;5.40;4.33;;;;;;;;;;4997155;28;20389;-64
2021/08/29 09:29:25;;;;;;;4.23;3.47;;;;;;;;;;5014592;28;20955;-64
2021/08/29 09:31:51;;;;;;;4.50;3.50;;;;;;;;;;5015648;28;20437;-63
2021/08/29 09:34:22;;;;;;;5.60;4.30;;;;;;;;;;4999895;28;20444;-64
2021/08/29 09:36:51;;;;;;;5.60;4.03;;;;;;;;;;4997083;28;20887;-63
2021/08/29 09:39:21;;;;;;;5.53;4.20;;;;;;;;;;5012253;28;20975;-63
2021/08/29 09:41:47;;;;;;;5.40;3.97;;;;;;;;;;5016477;28;20410;-64
2021/08/29 09:44:20;;;;;;;12.33;4.33;;;;;;;;;;5000182;28;20501;-65
2021/08/29 09:46:49;;;;;;;7.27;4.97;;;;;;;;;;4996176;28;20500;-64
2021/08/29 09:49:22;;;;;;;8.17;5.80;;;;;;;;;;4996182;28;20452;-64
2021/08/29 09:51:48;;;;;;;5.60;4.40;;;;;;;;;;4996611;28;20391;-64
2021/08/29 09:54:26;;;;;;;5.23;4.73;;;;;;;;;;5010332;28;20905;-64
2021/08/29 09:56:52;;;;;;;4.53;4.10;;;;;;;;;;5016171;28;20449;-64
2021/08/29 09:59:36;;;;;;;5.83;4.47;;;;;;;;;;5015042;28;20501;-64
2021/08/29 10:02:02;;;;;;;7.10;4.97;;;;;;;;;;5016032;28;20419;-63
2021/08/29 10:04:28;;;;;;;5.87;4.70;;;;;;;;;;5014909;28;20522;-66
2021/08/29 10:06:54;;;;;;;6.20;4.40;;;;;;;;;;5014785;28;20455;-66
2021/08/29 10:09:26;;;;;;;5.87;4.47;;;;;;;;;;5015016;28;20448;-64
2021/08/29 10:11:53;;;;;;;5.43;4.37;;;;;;;;;;5015862;28;20483;-64
2021/08/29 10:14:21;;;;;;;5.30;4.33;;;;;;;;;;5014818;28;20470;-64
2021/08/29 10:16:47;;;;;;;5.83;4.13;;;;;;;;;;5015815;28;20494;-64
2021/08/29 10:19:15;;;;;;;6.70;4.07;;;;;;;;;;5014823;28;20448;-65
2021/08/29 10:21:42;;;;;;;3.93;3.37;;;;;;;;;;5015929;28;20416;-65
2021/08/29 10:24:08;;;;;;;4.10;3.30;;;;;;;;;;5014201;28;20474;-64
2021/08/29 10:26:34;;;;;;;4.07;3.23;;;;;;;;;;5015474;28;20885;-64
2021/08/29 10:29:00;;;;;;;5.20;3.37;;;;;;;;;;5011981;28;20513;-65
2021/08/29 10:31:29;;;;;;;4.50;3.70;;;;;;;;;;5015639;28;20411;-63
2021/08/29 10:33:55;;;;;;;4.67;3.20;;;;;;;;;;5010111;28;20508;-66
2021/08/29 10:36:22;;;;;;;5.60;3.60;;;;;;;;;;4995679;28;20495;-65
2021/08/29 10:38:49;;;;;;;7.13;3.47;;;;;;;;;;4999002;28;20487;-65
2021/08/29 10:41:20;;;;;;;4.50;2.90;;;;;;;;;;5015184;28;20412;-66
2021/08/29 10:43:47;;;;;;;3.87;2.87;;;;;;;;;;5013920;28;20470;-66
2021/08/29 10:46:14;;;;;;;5.90;3.83;;;;;;;;;;5014215;28;20431;-65
2021/08/29 10:48:41;;;;;;;4.13;3.43;;;;;;;;;;5014293;28;20937;-65
2021/08/29 10:51:10;;;;;;;3.33;2.73;;;;;;;;;;5015045;28;20450;-65
2021/08/29 10:53:56;;;;;;;2.80;2.40;;;;;;;;;;5012947;28;20435;-66
2021/08/29 10:56:22;;;;;;;2.93;2.30;;;;;;;;;;5006121;28;20432;-65
2021/08/29 10:59:08;;;;;;;3.07;2.13;;;;;;;;;;5010653;28;20854;-66
2021/08/29 11:01:37;;;;;;;2.47;1.87;;;;;;;;;;4993960;28;20404;-65
2021/08/29 11:04:19;;;;;;;2.80;1.73;;;;;;;;;;4999911;28;20467;-65
2021/08/29 11:06:46;;;;;;;2.60;1.80;;;;;;;;;;5014698;28;20490;-65
2021/08/29 11:09:31;;;;;;;2.43;1.83;;;;;;;;;;5008108;28;20449;-66
2021/08/29 11:11:58;;;;;;;2.47;1.83;;;;;;;;;;4994954;28;20428;-65
2021/08/29 11:14:39;;;;;;;2.87;2.00;;;;;;;;;;5001911;28;20436;-66
2021/08/29 11:17:10;;;;;;;4.20;1.90;;;;;;;;;;5014831;28;20498;-66
2021/08/29 11:19:39;;;;;;;2.93;1.90;;;;;;;;;;4996204;28;20454;-65
2021/08/29 11:22:08;;;;;;;2.10;1.70;;;;;;;;;;5014480;28;20407;-65
2021/08/29 11:24:53;;;;;;;3.00;1.63;;;;;;;;;;5013408;28;20987;-67
2021/08/29 11:27:34;;;;;;;2.20;1.70;;;;;;;;;;5014627;28;20461;-66
2021/08/29 11:30:14;;;;;;;2.10;1.70;;;;;;;;;;5011278;28;20685;-65
2021/08/29 11:32:51;;;;;;;2.37;1.60;;;;;;;;;;5014445;28;20392;-66
2021/08/29 11:35:23;;;;;;;2.93;1.97;;;;;;;;;;5013852;28;20517;-65
2021/08/29 11:38:08;;;;;;;4.57;1.57;;;;;;;;;;5014616;28;20443;-65
2021/08/29 11:40:46;;;;;;;1.70;1.20;;;;;;;;;;5013446;28;20967;-65
2021/08/29 11:43:14;;;;;;;3.80;1.50;;;;;;;;;;5014551;28;20479;-65
2021/08/29 11:45:41;;;;;;;1.93;1.23;;;;;;;;;;5013588;28;20793;-65
2021/08/29 11:48:08;;;;;;;2.80;1.57;;;;;;;;;;5014646;28;20462;-65
2021/08/29 11:50:34;;;;;;;2.13;1.43;;;;;;;;;;5013323;28;20916;-65
2021/08/29 11:53:00;;;;;;;2.40;1.70;;;;;;;;;;5014154;28;20484;-65
2021/08/29 11:55:26;;;;;;;6.60;1.63;;;;;;;;;;5009009;28;20432;-65
2021/08/29 11:57:53;;;;;;;3.40;1.80;;;;;;;;;;5005110;28;20485;-64
2021/08/29 12:00:26;;;;;;;2.60;1.80;;;;;;;;;;5012779;28;20518;-65
2021/08/29 12:02:53;;;;;;;4.17;2.03;;;;;;;;;;5012763;28;20467;-64
2021/08/29 12:05:19;;;;;;;2.20;1.73;;;;;;;;;;5000634;28;20428;-65
2021/08/29 12:07:57;;;;;;;2.70;1.93;;;;;;;;;;4994367;28;20429;-64
2021/08/29 12:10:24;;;;;;;3.53;1.67;;;;;;;;;;5007131;28;20429;-65
2021/08/29 12:12:50;;;;;;;2.67;1.80;;;;;;;;;;5013919;28;20439;-65
2021/08/29 12:15:18;;;;;;;1.83;1.37;;;;;;;;;;5013068;28;20436;-64
2021/08/29 12:17:44;;;;;;;2.30;1.60;;;;;;;;;;5012548;28;20971;-65
2021/08/29 12:20:11;;;;;;;3.30;1.60;;;;;;;;;;5012921;28;20951;-65
2021/08/29 12:22:37;;;;;;;2.37;1.67;;;;;;;;;;5012685;28;20790;-64
2021/08/29 12:25:04;;;;;;;2.30;1.43;;;;;;;;;;5010776;28;20916;-66
2021/08/29 12:27:30;;;;;;;2.67;1.60;;;;;;;;;;5012903;28;20923;-68
2021/08/29 12:29:57;;;;;;;1.80;1.20;;;;;;;;;;5013570;28;20428;-66
2021/08/29 12:32:23;;;;;;;3.20;1.90;;;;;;;;;;5013583;28;20524;-67
2021/08/29 12:34:51;;;;;;;2.87;1.73;;;;;;;;;;5012646;28;20436;-68
2021/08/29 12:37:17;;;;;;;9.73;2.20;;;;;;;;;;5012850;28;20431;-64
2021/08/29 12:39:54;;;;;;;2.40;1.50;;;;;;;;;;5011946;28;20478;-64
2021/08/29 12:42:22;;;;;;;4.30;1.70;;;;;;;;;;5013629;28;20443;-64
2021/08/29 12:44:48;;;;;;;1.90;1.17;;;;;;;;;;5010625;28;20517;-63
2021/08/29 12:47:15;;;;;;;3.70;1.80;;;;;;;;;;5012799;28;20430;-65
2021/08/29 12:49:41;;;;;;;4.30;1.50;;;;;;;;;;5012395;28;20462;-63
2021/08/29 12:52:09;;;;;;;2.60;1.57;;;;;;;;;;5012833;28;20419;-63
2021/08/29 12:54:35;;;;;;;4.60;1.77;;;;;;;;;;5010721;28;20427;-63
2021/08/29 12:57:04;;;;;;;2.17;1.43;;;;;;;;;;5012569;28;20420;-63
2021/08/29 12:59:31;;;;;;;2.70;1.60;;;;;;;;;;5012244;28;20451;-63
2021/08/29 13:01:57;;;;;;;3.50;2.10;;;;;;;;;;5010997;28;20451;-64
2021/08/29 13:04:24;;;;;;;2.50;1.80;;;;;;;;;;5010452;28;20867;-63
2021/08/29 13:07:01;;;;;;;2.53;1.50;;;;;;;;;;5012955;28;20428;-64
2021/08/29 13:09:27;;;;;;;2.00;1.30;;;;;;;;;;5013348;28;20424;-63
2021/08/29 13:11:54;;;;;;;1.93;1.33;;;;;;;;;;5013226;28;20906;-64
2021/08/29 13:14:34;;;;;;;2.10;1.33;;;;;;;;;;5013283;28;20806;-64
2021/08/29 13:17:16;;;;;;;2.23;1.13;;;;;;;;;;5012473;28;20481;-63
2021/08/29 13:19:42;;;;;;;2.53;1.50;;;;;;;;;;5013459;28;20412;-64
2021/08/29 13:22:09;;;;;;;1.90;1.30;;;;;;;;;;5016601;28;20450;-63
2021/08/29 13:24:35;;;;;;;1.60;1.10;;;;;;;;;;5016458;28;20459;-63
2021/08/29 13:27:02;;;;;;;1.93;1.23;;;;;;;;;;5015676;28;20419;-63
2021/08/29 13:29:38;;;;;;;1.97;1.37;;;;;;;;;;5016296;28;20811;-63
2021/08/29 13:32:05;;;;;;;3.00;1.10;;;;;;;;;;5016065;28;20506;-63
2021/08/29 13:34:31;;;;;;;2.20;1.83;;;;;;;;;;5016945;28;20773;-63
2021/08/29 13:36:57;;;;;;;2.70;1.20;;;;;;;;;;5016433;28;20431;-63
2021/08/29 13:39:25;;;;;;;2.27;1.30;;;;;;;;;;5016885;28;20459;-63
2021/08/29 13:42:11;;;;;;;1.50;1.07;;;;;;;;;;5016171;28;20423;-63
2021/08/29 13:44:42;;;;;;;1.80;1.20;;;;;;;;;;5016119;28;20529;-63
2021/08/29 13:47:08;;;;;;;2.30;1.23;;;;;;;;;;5016152;28;20471;-63
2021/08/29 13:49:34;;;;;;;3.40;1.30;;;;;;;;;;5015779;28;20436;-63
2021/08/29 13:52:01;;;;;;;2.07;1.30;;;;;;;;;;5015950;28;20412;-63
2021/08/29 13:54:27;;;;;;;3.50;1.40;;;;;;;;;;5016166;28;20407;-63
2021/08/29 13:56:53;;;;;;;1.90;1.13;;;;;;;;;;5015704;28;20428;-63
2021/08/29 13:59:19;;;;;;;2.17;1.30;;;;;;;;;;5015904;28;20944;-63
2021/08/29 14:01:45;;;;;;;1.90;1.10;;;;;;;;;;5016892;28;20428;-63
2021/08/29 14:04:11;;;;;;;3.00;1.10;;;;;;;;;;5015765;28;20463;-63
2021/08/29 14:06:37;;;;;;;2.23;1.20;;;;;;;;;;5013656;28;20431;-66
2021/08/29 14:09:03;;;;;;;3.00;1.27;;;;;;;;;;5014156;28;20527;-65
2021/08/29 14:11:29;;;;;;;2.47;1.53;;;;;;;;;;5016561;28;20411;-67
2021/08/29 14:13:55;;;;;;;1.83;1.00;;;;;;;;;;5015535;28;20427;-64
2021/08/29 14:16:22;;;;;;;1.70;1.10;;;;;;;;;;5015174;28;20814;-65
2021/08/29 14:18:48;;;;;;;2.30;1.57;;;;;;;;;;4996263;28;20844;-65
2021/08/29 14:21:14;;;;;;;1.60;0.90;;;;;;;;;;5012220;28;20786;-65
2021/08/29 14:23:40;;;;;;;1.87;1.07;;;;;;;;;;5013561;28;20459;-65
2021/08/29 14:26:06;;;;;;;1.60;1.03;;;;;;;;;;5015176;28;20424;-65
2021/08/29 14:28:32;;;;;;;2.83;1.37;;;;;;;;;;5015804;28;20424;-65
2021/08/29 14:30:58;;;;;;;2.17;1.17;;;;;;;;;;5015107;28;20414;-65
2021/08/29 14:33:24;;;;;;;1.90;1.10;;;;;;;;;;5013298;28;20432;-65
2021/08/29 14:35:50;;;;;;;2.23;1.13;;;;;;;;;;5015362;28;20770;-65
2021/08/29 14:38:16;;;;;;;1.80;1.00;;;;;;;;;;5014260;28;20570;-65
2021/08/29 14:40:43;;;;;;;1.87;1.03;;;;;;;;;;5015281;28;20404;-65
2021/08/29 14:43:09;;;;;;;2.93;1.10;;;;;;;;;;5005918;28;20555;-64
2021/08/29 14:45:35;;;;;;;1.90;1.20;;;;;;;;;;4995612;28;20412;-65